createdAt,value
2017-10-06T00:01:02.459Z,94737.72
2017-10-06T00:03:30.804Z,94727.42
2017-10-06T00:05:59.146Z,94746.66
2017-10-06T00:08:27.494Z,94722.94
2017-10-06T00:10:55.862Z,94722.96
2017-10-06T00:13:24.199Z,94732.73
2017-10-06T00:15:52.543Z,94731.81
2017-10-06T00:18:20.893Z,94730.83
2017-10-06T00:20:49.243Z,94739.44
2017-10-06T00:23:17.640Z,94725.79
2017-10-06T00:25:45.983Z,94728.86
2017-10-06T00:28:14.323Z,94730.59
2017-10-06T00:30:42.699Z,94728.84
2017-10-06T00:33:11.062Z,94727.32
2017-10-06T00:35:39.454Z,94723.95
2017-10-06T00:38:07.808Z,94726.91
2017-10-06T00:40:36.156Z,94731.59
2017-10-06T00:43:04.550Z,94742.80
2017-10-06T00:45:32.908Z,94731.88
2017-10-06T00:48:01.459Z,94731.89
2017-10-06T00:50:29.806Z,94728.34
2017-10-06T00:52:58.160Z,94715.34
2017-10-06T00:55:26.507Z,94719.63
2017-10-06T00:57:54.855Z,94716.68
2017-10-06T01:00:23.367Z,94733.83
2017-10-06T01:02:51.728Z,94721.91
2017-10-06T01:05:20.105Z,94731.63
2017-10-06T01:07:48.471Z,94723.30
2017-10-06T01:10:16.826Z,94720.11
2017-10-06T01:12:45.218Z,94726.92
2017-10-06T01:15:13.563Z,94729.38
2017-10-06T01:17:41.914Z,94720.67
2017-10-06T01:20:10.289Z,94717.00
2017-10-06T01:22:38.636Z,94722.88
2017-10-06T01:25:06.979Z,94715.53
2017-10-06T01:27:35.367Z,94713.61
2017-10-06T01:30:03.703Z,94703.83
2017-10-06T01:32:32.094Z,94696.30
2017-10-06T01:35:00.452Z,94703.11
2017-10-06T01:37:28.804Z,94699.61
2017-10-06T01:39:57.290Z,94700.28
2017-10-06T01:42:25.641Z,94694.31
2017-10-06T01:44:53.994Z,94693.14
2017-10-06T01:47:22.363Z,94689.80
2017-10-06T01:49:50.725Z,94687.77
2017-10-06T01:52:19.079Z,94687.25
2017-10-06T01:54:47.431Z,94695.25
2017-10-06T01:57:15.783Z,94685.38
2017-10-06T01:59:44.132Z,94683.51
2017-10-06T02:02:12.510Z,94693.05
2017-10-06T02:04:40.898Z,94685.00
2017-10-06T02:07:09.239Z,94696.36
2017-10-06T02:09:37.591Z,94681.77
2017-10-06T02:12:05.958Z,94688.19
2017-10-06T02:14:34.311Z,94679.50
2017-10-06T02:17:02.660Z,94676.11
2017-10-06T02:19:31.008Z,94691.43
2017-10-06T02:21:59.392Z,94681.78
2017-10-06T02:24:27.894Z,94674.45
2017-10-06T02:26:56.240Z,94686.69
2017-10-06T02:29:24.598Z,94691.34
2017-10-06T02:31:52.987Z,94695.95
2017-10-06T02:34:21.360Z,94688.02
2017-10-06T02:36:49.702Z,94684.13
2017-10-06T02:39:18.078Z,94682.06
2017-10-06T02:41:46.433Z,94683.85
2017-10-06T02:44:14.820Z,94692.88
2017-10-06T02:46:43.157Z,94690.27
2017-10-06T02:49:11.501Z,94678.91
2017-10-06T02:51:39.875Z,94689.27
2017-10-06T02:54:08.227Z,94685.62
2017-10-06T02:56:36.591Z,94698.08
2017-10-06T02:59:04.957Z,94686.95
2017-10-06T03:01:33.302Z,94685.15
2017-10-06T03:04:01.692Z,94665.07
2017-10-06T03:06:30.036Z,94669.88
2017-10-06T03:08:58.399Z,94681.16
2017-10-06T03:11:26.774Z,94667.94
2017-10-06T03:13:55.140Z,94674.11
2017-10-06T03:16:23.480Z,94665.89
2017-10-06T03:18:51.851Z,94676.83
2017-10-06T03:21:20.199Z,94669.77
2017-10-06T03:23:48.575Z,94667.68
2017-10-06T03:26:16.915Z,94675.31
2017-10-06T03:28:45.287Z,94674.27
2017-10-06T03:31:13.632Z,94670.52
2017-10-06T03:33:41.996Z,94671.25
2017-10-06T03:36:10.339Z,94682.89
2017-10-06T03:38:38.697Z,94673.98
2017-10-06T03:41:07.068Z,94675.54
2017-10-06T03:43:35.415Z,94676.95
2017-10-06T03:46:03.787Z,94674.09
2017-10-06T03:48:32.151Z,94670.38
2017-10-06T03:51:00.491Z,94683.04
2017-10-06T03:53:28.876Z,94667.42
2017-10-06T03:55:57.223Z,94666.31
2017-10-06T03:58:25.561Z,94659.98
2017-10-06T04:00:53.940Z,94667.22
2017-10-06T04:03:22.298Z,94664.39
2017-10-06T04:05:50.812Z,94662.67
2017-10-06T04:08:19.153Z,94659.12
2017-10-06T04:10:47.501Z,94671.00
2017-10-06T04:13:15.867Z,94664.03
2017-10-06T04:15:44.247Z,94673.14
2017-10-06T04:18:12.620Z,94674.81
2017-10-06T04:20:40.972Z,94672.10
2017-10-06T04:23:09.773Z,94677.40
2017-10-06T04:25:38.138Z,94676.80
2017-10-06T04:28:06.482Z,94683.51
2017-10-06T04:30:34.860Z,94676.86
2017-10-06T04:33:03.201Z,94668.17
2017-10-06T04:35:31.547Z,94673.06
2017-10-06T04:38:00.091Z,94675.72
2017-10-06T04:40:28.465Z,94679.70
2017-10-06T04:42:56.836Z,94673.48
2017-10-06T04:45:25.183Z,94669.13
2017-10-06T04:47:53.557Z,94668.91
2017-10-06T04:50:21.901Z,94670.58
2017-10-06T04:52:50.290Z,94679.72
2017-10-06T04:55:18.652Z,94687.55
2017-10-06T04:57:46.995Z,94670.72
2017-10-06T05:00:15.372Z,94684.03
2017-10-06T05:02:43.754Z,94675.40
2017-10-06T05:05:12.103Z,94683.09
2017-10-06T05:07:40.473Z,94682.58
2017-10-06T05:10:08.823Z,94684.93
2017-10-06T05:12:37.192Z,94677.19
2017-10-06T05:15:05.536Z,94681.13
2017-10-06T05:17:34.051Z,94673.34
2017-10-06T05:20:02.405Z,94693.52
2017-10-06T05:22:30.745Z,94689.16
2017-10-06T05:24:59.091Z,94685.30
2017-10-06T05:27:27.489Z,94703.33
2017-10-06T05:30:02.794Z,94695.83
2017-10-06T05:32:31.142Z,94700.61
2017-10-06T05:34:59.623Z,94707.59
2017-10-06T05:37:27.968Z,94688.88
2017-10-06T05:39:56.309Z,94698.71
2017-10-06T05:42:24.651Z,94693.06
2017-10-06T05:44:54.001Z,94695.34
2017-10-06T05:47:22.352Z,94692.69
2017-10-06T05:49:50.713Z,94694.56
2017-10-06T05:52:19.075Z,94688.15
2017-10-06T05:54:47.435Z,94698.04
2017-10-06T05:57:16.763Z,94699.27
2017-10-06T05:59:45.234Z,94700.55
2017-10-06T06:02:13.579Z,94693.10
2017-10-06T06:04:41.971Z,94697.78
2017-10-06T06:07:10.362Z,94694.49
2017-10-06T06:09:38.710Z,94699.50
2017-10-06T06:12:07.072Z,94698.61
2017-10-06T06:14:35.432Z,94709.89
2017-10-06T06:17:03.798Z,94711.42
2017-10-06T06:19:32.152Z,94722.95
2017-10-06T06:22:00.500Z,94716.43
2017-10-06T06:24:28.882Z,94724.92
2017-10-06T06:26:57.232Z,94727.34
2017-10-06T06:29:25.575Z,94730.92
2017-10-06T06:31:53.944Z,94731.52
2017-10-06T06:34:22.301Z,94719.94
2017-10-06T06:36:51.647Z,94723.38
2017-10-06T06:39:19.987Z,94723.89
2017-10-06T06:41:48.748Z,94729.69
2017-10-06T06:44:17.093Z,94718.58
2017-10-06T06:46:45.436Z,94725.02
2017-10-06T06:49:13.793Z,94733.55
2017-10-06T06:51:42.259Z,94726.55
2017-10-06T06:54:10.726Z,94736.25
2017-10-06T06:56:39.083Z,94737.55
2017-10-06T06:59:07.431Z,94739.23
2017-10-06T07:01:35.792Z,94739.27
2017-10-06T07:04:04.319Z,94741.45
2017-10-06T07:06:32.663Z,94737.39
2017-10-06T07:09:01.013Z,94742.45
2017-10-06T07:11:29.544Z,94745.70
2017-10-06T07:13:57.992Z,94744.34
2017-10-06T07:16:26.399Z,94755.60
2017-10-06T07:18:54.815Z,94758.00
2017-10-06T07:21:23.192Z,94767.60
2017-10-06T07:23:51.544Z,94760.49
2017-10-06T07:26:19.890Z,94756.19
2017-10-06T07:28:48.244Z,94761.30
2017-10-06T07:31:16.594Z,94757.78
2017-10-06T07:33:44.943Z,94752.61
2017-10-06T07:36:13.292Z,94769.23
2017-10-06T07:38:41.635Z,94768.55
2017-10-06T07:41:09.983Z,94771.69
2017-10-06T07:43:38.335Z,94776.23
2017-10-06T07:46:06.699Z,94795.69
2017-10-06T07:48:35.075Z,94785.92
2017-10-06T07:51:03.695Z,94789.34
2017-10-06T07:53:32.049Z,94783.09
2017-10-06T07:56:00.391Z,94778.13
2017-10-06T07:58:28.748Z,94776.89
2017-10-06T08:00:57.330Z,94781.41
2017-10-06T08:03:25.682Z,94778.75
2017-10-06T08:05:54.030Z,94791.56
2017-10-06T08:08:22.375Z,94780.80
2017-10-06T08:10:50.762Z,94784.55
2017-10-06T08:13:19.119Z,94786.47
2017-10-06T08:15:47.460Z,94783.86
2017-10-06T08:18:15.814Z,94781.59
2017-10-06T08:20:44.174Z,94781.14
2017-10-06T08:23:12.531Z,94791.69
2017-10-06T08:25:40.891Z,94785.64
2017-10-06T08:28:09.260Z,94803.64
2017-10-06T08:30:37.617Z,94798.58
2017-10-06T08:33:06.228Z,94804.92
2017-10-06T08:35:34.580Z,94798.05
2017-10-06T08:38:02.920Z,94808.67
2017-10-06T08:40:31.274Z,94801.95
2017-10-06T08:42:59.607Z,94801.82
2017-10-06T08:45:27.978Z,94811.02
2017-10-06T08:47:56.422Z,94817.26
2017-10-06T08:50:24.819Z,94821.28
2017-10-06T08:52:53.175Z,94820.17
2017-10-06T08:55:21.515Z,94818.80
2017-10-06T08:57:49.861Z,94825.00
2017-10-06T09:00:18.212Z,94822.36
2017-10-06T09:02:46.606Z,94830.77
2017-10-06T09:05:14.951Z,94834.03
2017-10-06T09:07:43.343Z,94838.78
2017-10-06T09:10:11.690Z,94833.39
2017-10-06T09:12:40.080Z,94829.19
2017-10-06T09:15:08.441Z,94835.22
2017-10-06T09:17:36.816Z,94830.59
2017-10-06T09:20:05.154Z,94832.64
2017-10-06T09:22:33.562Z,94834.02
2017-10-06T09:25:02.337Z,94841.27
2017-10-06T09:27:30.687Z,94834.58
2017-10-06T09:29:59.032Z,94838.55
2017-10-06T09:32:27.422Z,94837.39
2017-10-06T09:34:55.985Z,94833.81
2017-10-06T09:37:24.368Z,94843.97
2017-10-06T09:39:52.708Z,94848.89
2017-10-06T09:42:21.181Z,94845.91
2017-10-06T09:44:49.640Z,94846.41
2017-10-06T09:47:18.011Z,94858.53
2017-10-06T09:49:46.359Z,94856.89
2017-10-06T09:52:14.740Z,94856.91
2017-10-06T09:54:43.088Z,94864.95
2017-10-06T09:57:11.455Z,94858.87
2017-10-06T09:59:39.801Z,94867.83
2017-10-06T10:02:08.180Z,94864.62
2017-10-06T10:04:36.772Z,94867.77
2017-10-06T10:07:05.315Z,94875.88
2017-10-06T10:09:33.850Z,94869.86
2017-10-06T10:12:02.431Z,94886.61
2017-10-06T10:14:30.773Z,94886.22
2017-10-06T10:16:59.108Z,94892.69
2017-10-06T10:19:27.469Z,94904.87
2017-10-06T10:21:55.840Z,94905.45
2017-10-06T10:24:24.223Z,94910.00
2017-10-06T10:26:52.611Z,94913.07
2017-10-06T10:29:20.980Z,94911.50
2017-10-06T10:31:49.323Z,94924.53
2017-10-06T10:34:17.697Z,94922.97
2017-10-06T10:36:46.043Z,94922.16
2017-10-06T10:39:14.600Z,94931.11
2017-10-06T10:41:42.956Z,94930.61
2017-10-06T10:44:11.299Z,94940.52
2017-10-06T10:46:39.676Z,94940.81
2017-10-06T10:49:08.016Z,94951.31
2017-10-06T10:51:36.382Z,94935.47
2017-10-06T10:54:04.772Z,94959.89
2017-10-06T10:56:33.120Z,94947.73
2017-10-06T10:59:01.492Z,94949.66
2017-10-06T11:01:29.834Z,94956.62
2017-10-06T11:03:58.300Z,94956.00
2017-10-06T11:06:26.745Z,94960.95
2017-10-06T11:08:55.093Z,94961.97
2017-10-06T11:11:23.547Z,94966.70
2017-10-06T11:13:52.024Z,94971.70
2017-10-06T11:16:20.404Z,94962.70
2017-10-06T11:18:48.783Z,94969.58
2017-10-06T11:21:17.554Z,94977.99
2017-10-06T11:23:46.092Z,94964.95
2017-10-06T11:26:14.445Z,94963.98
2017-10-06T11:28:42.776Z,94979.28
2017-10-06T11:31:11.138Z,94980.34
2017-10-06T11:33:39.507Z,94973.59
2017-10-06T11:36:07.863Z,94976.30
2017-10-06T11:38:36.230Z,94964.13
2017-10-06T11:41:04.569Z,94981.76
2017-10-06T11:43:32.946Z,94974.52
2017-10-06T11:46:01.319Z,94980.08
2017-10-06T11:48:29.659Z,94975.55
2017-10-06T11:50:58.018Z,94978.33
2017-10-06T11:53:26.376Z,94975.61
2017-10-06T11:55:54.768Z,94972.80
2017-10-06T11:58:23.139Z,94965.23
2017-10-06T12:00:51.515Z,94966.38
2017-10-06T12:03:19.867Z,94970.41
2017-10-06T12:05:48.243Z,94965.07
2017-10-06T12:08:16.615Z,94967.81
2017-10-06T12:10:44.980Z,94980.64
2017-10-06T12:13:13.323Z,94977.98
2017-10-06T12:15:41.795Z,94980.98
2017-10-06T12:18:10.158Z,94986.29
2017-10-06T12:20:38.512Z,94991.26
2017-10-06T12:23:06.851Z,94979.78
2017-10-06T12:25:35.211Z,94984.14
2017-10-06T12:28:03.615Z,94984.54
2017-10-06T12:30:31.954Z,94990.73
2017-10-06T12:33:00.295Z,94984.20
2017-10-06T12:35:28.640Z,94986.88
2017-10-06T12:37:56.978Z,94994.64
2017-10-06T12:40:25.355Z,94988.16
2017-10-06T12:42:53.708Z,95001.02
2017-10-06T12:45:22.075Z,94988.54
2017-10-06T12:47:50.428Z,94997.69
2017-10-06T12:50:18.799Z,94988.16
2017-10-06T12:52:47.145Z,94998.25
2017-10-06T12:55:15.511Z,94994.00
2017-10-06T12:57:43.876Z,95001.37
2017-10-06T13:00:12.215Z,95012.32
2017-10-06T13:02:40.618Z,95000.13
2017-10-06T13:05:09.008Z,95009.52
2017-10-06T13:07:37.401Z,94999.65
2017-10-06T13:10:05.751Z,94999.80
2017-10-06T13:12:34.099Z,94997.23
2017-10-06T13:15:02.816Z,95008.23
2017-10-06T13:17:31.159Z,95001.16
2017-10-06T13:19:59.540Z,95008.53
2017-10-06T13:22:27.951Z,95020.23
2017-10-06T13:24:56.294Z,95025.16
2017-10-06T13:27:25.539Z,95021.63
2017-10-06T13:29:53.891Z,95013.17
2017-10-06T13:32:22.262Z,95022.02
2017-10-06T13:34:50.615Z,95017.94
2017-10-06T13:37:19.102Z,95018.64
2017-10-06T13:39:47.457Z,95020.27
2017-10-06T13:42:15.796Z,95029.29
2017-10-06T13:44:44.167Z,95030.38
2017-10-06T13:47:12.547Z,95025.59
2017-10-06T13:49:40.886Z,95040.76
2017-10-06T13:52:09.255Z,95027.14
2017-10-06T13:54:37.603Z,95028.89
2017-10-06T13:57:05.975Z,95027.91
2017-10-06T13:59:34.355Z,95026.79
2017-10-06T14:02:02.743Z,94998.62
2017-10-06T14:04:31.551Z,95014.32
2017-10-06T14:06:59.919Z,95027.41
2017-10-06T14:09:28.259Z,95034.94
2017-10-06T14:11:56.611Z,95033.41
2017-10-06T14:14:24.992Z,95034.55
2017-10-06T14:16:53.408Z,95030.11
2017-10-06T14:19:21.748Z,95042.14
2017-10-06T14:21:50.176Z,95033.04
2017-10-06T14:24:18.555Z,95032.87
2017-10-06T14:26:46.897Z,95034.61
2017-10-06T14:29:15.275Z,95031.41
2017-10-06T14:31:43.670Z,95041.64
2017-10-06T14:34:12.011Z,95045.33
2017-10-06T14:36:40.369Z,95043.55
2017-10-06T14:39:08.739Z,95039.05
2017-10-06T14:41:37.118Z,95043.06
2017-10-06T14:44:05.491Z,95041.17
2017-10-06T14:46:33.867Z,95047.74
2017-10-06T14:49:02.395Z,95049.84
2017-10-06T14:51:30.768Z,95045.68
2017-10-06T14:53:59.129Z,95059.80
2017-10-06T14:56:27.511Z,95048.97
2017-10-06T14:58:55.867Z,95052.11
2017-10-06T15:01:24.236Z,95061.05
2017-10-06T15:03:52.601Z,95058.98
2017-10-06T15:06:20.986Z,95061.48
2017-10-06T15:08:49.468Z,95072.98
2017-10-06T15:11:17.814Z,95079.18
2017-10-06T15:13:46.157Z,95058.35
2017-10-06T15:16:14.515Z,95061.64
2017-10-06T15:18:42.881Z,95056.56
